Time;durP1;ratioP1;P1;durP2;ratioP2;P2;SDS_P1;SDS_P2;PMS_P1;PMS_P2;Temp;Humidity;BMP_temperature;BMP_pressure;BME280_temperature;BME280_humidity;BME280_pressure;Samples;Min_cycle;Max_cycle;Signal;HPM_P1;HPM_P2
2023/06/06 00:00:41;;;;;;;4.20;3.10;;;;;;;21.30;47.35;100577.16;4145655;28;20034;-71
2023/06/06 00:02:46;;;;;;;6.80;3.70;;;;;;;21.38;47.25;100575.16;4127088;28;20042;-71
2023/06/06 00:04:50;;;;;;;4.78;3.00;;;;;;;21.37;47.17;100574.28;4129214;28;20095;-71
2023/06/06 00:06:54;;;;;;;6.50;3.78;;;;;;;21.35;46.85;100572.59;4128001;28;20089;-71
2023/06/06 00:08:58;;;;;;;3.90;2.75;;;;;;;21.32;46.81;100575.31;4111334;28;20052;-71
2023/06/06 00:11:01;;;;;;;6.30;2.85;;;;;;;21.27;46.95;100567.53;4145574;28;20045;-71
2023/06/06 00:13:04;;;;;;;4.20;2.88;;;;;;;21.27;47.71;100567.53;4145424;28;20048;-71
2023/06/06 00:15:08;;;;;;;5.55;3.08;;;;;;;21.26;46.72;100571.06;4146449;28;20068;-72
2023/06/06 00:17:12;;;;;;;6.30;3.30;;;;;;;21.23;46.57;100574.69;4128281;28;20049;-71
2023/06/06 00:19:15;;;;;;;5.53;2.88;;;;;;;21.21;46.54;100581.78;4144531;28;20518;-72
2023/06/06 00:21:18;;;;;;;5.22;3.25;;;;;;;21.21;46.42;100573.00;4145521;28;20416;-72
2023/06/06 00:23:21;;;;;;;4.60;2.83;;;;;;;21.18;46.21;100573.09;4145004;28;20069;-72
2023/06/06 00:25:25;;;;;;;7.50;3.30;;;;;;;21.18;45.95;100573.94;4145385;28;20046;-72
2023/06/06 00:27:28;;;;;;;5.60;3.42;;;;;;;21.14;46.09;100577.56;4128186;28;21402;-71
2023/06/06 00:29:32;;;;;;;4.97;2.63;;;;;;;21.12;46.18;100573.25;4128009;28;20038;-72
2023/06/06 00:31:35;;;;;;;7.03;2.92;;;;;;;21.10;46.43;100573.31;4128015;28;20097;-71
2023/06/06 00:33:37;;;;;;;4.85;2.70;;;;;;;21.09;46.61;100574.19;4138335;28;20034;-72
2023/06/06 00:35:40;;;;;;;6.50;3.33;;;;;;;21.08;46.66;100575.09;4144571;28;20491;-72
2023/06/06 00:37:43;;;;;;;4.15;2.63;;;;;;;21.04;46.56;100571.69;4143383;28;20034;-72
2023/06/06 00:39:48;;;;;;;5.65;3.17;;;;;;;21.00;46.66;100571.81;4126754;28;20042;-72
2023/06/06 00:41:52;;;;;;;4.65;3.20;;;;;;;20.97;46.67;100574.53;4143444;28;20053;-72
2023/06/06 00:43:56;;;;;;;5.47;3.28;;;;;;;20.95;46.86;100576.34;4127189;28;20050;-72
2023/06/06 00:45:59;;;;;;;5.00;3.00;;;;;;;20.95;47.09;100576.34;4139001;28;20141;-72
2023/06/06 00:48:03;;;;;;;5.35;3.00;;;;;;;20.88;47.15;100568.59;4145139;28;21296;-72
2023/06/06 00:50:08;;;;;;;4.00;2.90;;;;;;;20.85;47.09;100571.31;4127931;28;20038;-73
2023/06/06 00:52:11;;;;;;;3.55;2.88;;;;;;;20.80;47.37;100586.41;4144728;28;20487;-72
2023/06/06 00:54:16;;;;;;;4.00;2.92;;;;;;;20.74;47.97;100578.66;4127793;28;20137;-72
2023/06/06 00:56:19;;;;;;;4.40;3.15;;;;;;;20.74;48.05;100583.94;4140342;28;20121;-73
2023/06/06 00:58:24;;;;;;;4.43;2.90;;;;;;;20.69;47.79;100580.53;4138808;28;20733;-73
2023/06/06 01:00:32;;;;;;;4.80;2.90;;;;;;;20.67;48.36;100577.09;4140311;28;20042;-72
2023/06/06 01:02:37;;;;;;;4.45;3.03;;;;;;;20.61;48.44;100577.22;4124498;28;20076;-72
2023/06/06 01:04:43;;;;;;;3.95;2.80;;;;;;;20.58;48.89;100580.78;4127788;28;20054;-73
2023/06/06 01:06:49;;;;;;;5.78;3.10;;;;;;;20.55;48.85;100573.81;4142599;28;20038;-73
2023/06/06 01:08:52;;;;;;;4.35;2.55;;;;;;;20.53;49.18;100580.91;4140329;28;20078;-72
2023/06/06 01:11:06;;;;;;;5.70;3.60;;;;;;;20.51;48.71;100576.56;4123857;28;20261;-73
2023/06/06 01:13:18;;;;;;;4.68;2.78;;;;;;;20.49;48.82;100575.75;4104509;28;20038;-73
2023/06/06 01:15:29;;;;;;;6.35;3.38;;;;;;;20.46;48.61;100581.09;4125091;28;20051;-72
2023/06/06 01:17:33;;;;;;;6.97;3.70;;;;;;;20.43;48.71;100574.13;4140417;28;20507;-73
2023/06/06 01:19:38;;;;;;;4.93;2.92;;;;;;;20.42;48.66;100585.59;4127610;28;20129;-73
2023/06/06 01:22:03;;;;;;;4.63;3.25;;;;;;;20.36;48.91;100583.09;4128367;28;20125;-72
2023/06/06 01:24:06;;;;;;;3.88;3.08;;;;;;;20.33;49.18;100588.47;4109857;28;20047;-72
2023/06/06 01:26:12;;;;;;;3.93;3.50;;;;;;;20.31;49.77;100579.69;4143338;28;20045;-72
2023/06/06 01:28:16;;;;;;;4.95;3.38;;;;;;;20.29;49.83;100592.06;4127605;28;20141;-72
2023/06/06 01:30:22;;;;;;;5.13;3.15;;;;;;;20.27;50.05;100589.47;4127241;28;20045;-72
2023/06/06 01:32:34;;;;;;;3.45;2.63;;;;;;;20.22;49.98;100594.88;4143494;28;20121;-72
2023/06/06 01:34:42;;;;;;;6.35;3.65;;;;;;;20.16;50.19;100591.50;4126462;28;20121;-72
2023/06/06 01:36:51;;;;;;;6.45;3.30;;;;;;;20.11;50.71;100586.31;4122203;28;20054;-72
2023/06/06 01:39:00;;;;;;;4.60;3.35;;;;;;;20.09;50.72;100596.03;4144846;28;20034;-72
2023/06/06 01:41:05;;;;;;;4.30;2.90;;;;;;;20.01;50.91;100592.72;4141054;28;20469;-72
2023/06/06 01:43:10;;;;;;;5.05;3.15;;;;;;;20.01;50.67;100592.72;4139385;28;20121;-72
2023/06/06 01:45:15;;;;;;;4.22;3.20;;;;;;;19.97;50.80;100588.41;4140996;28;20042;-72
2023/06/06 01:47:19;;;;;;;4.82;2.95;;;;;;;19.91;51.31;100585.91;4137206;28;20134;-72
2023/06/06 01:49:25;;;;;;;4.88;3.53;;;;;;;19.91;50.91;100596.47;4141330;28;20129;-72
2023/06/06 01:51:28;;;;;;;6.53;3.30;;;;;;;19.90;51.00;100589.44;4141669;28;20092;-72
2023/06/06 01:53:31;;;;;;;6.40;3.47;;;;;;;19.84;51.11;100599.25;4136118;28;20057;-72
2023/06/06 01:55:38;;;;;;;4.22;3.05;;;;;;;19.81;50.80;100594.03;4138738;28;20042;-72
2023/06/06 01:57:41;;;;;;;5.20;3.38;;;;;;;19.77;50.49;100600.25;4136223;28;20034;-72
2023/06/06 01:59:44;;;;;;;7.90;3.17;;;;;;;19.74;50.06;100602.94;4141276;28;20046;-72
2023/06/06 02:01:46;;;;;;;4.78;3.15;;;;;;;19.74;50.22;100600.28;4140778;28;20037;-72
2023/06/06 02:03:49;;;;;;;5.13;2.85;;;;;;;19.70;50.36;100599.50;4139580;23;20038;-69
2023/06/06 02:05:53;;;;;;;5.70;3.67;;;;;;;19.71;50.33;100605.63;4109680;28;20412;-71
2023/06/06 02:07:57;;;;;;;5.28;3.47;;;;;;;19.69;49.91;100602.19;4124695;28;20122;-71
2023/06/06 02:10:01;;;;;;;5.63;3.15;;;;;;;19.69;50.13;100602.19;4142825;28;20037;-69
2023/06/06 02:12:06;;;;;;;7.07;3.30;;;;;;;19.69;50.32;100610.94;4141853;28;20037;-69
2023/06/06 02:14:09;;;;;;;4.10;3.28;;;;;;;19.62;50.58;100601.44;4136358;28;20416;-72
2023/06/06 02:16:13;;;;;;;4.32;3.20;;;;;;;19.58;50.54;100604.16;4140659;28;20096;-69
2023/06/06 02:18:16;;;;;;;3.63;2.88;;;;;;;19.57;50.78;100613.00;4108082;28;20047;-69
2023/06/06 02:20:19;;;;;;;4.70;3.10;;;;;;;19.53;51.05;100601.63;4122548;28;20496;-72
2023/06/06 02:22:22;;;;;;;5.18;3.10;;;;;;;19.50;51.36;100610.47;4110077;28;20043;-69
2023/06/06 02:24:25;;;;;;;4.43;3.35;;;;;;;19.45;51.44;100603.53;4111726;28;20046;-69
2023/06/06 02:26:28;;;;;;;5.80;3.38;;;;;;;19.38;51.75;100602.81;4126654;28;20106;-71
2023/06/06 02:28:32;;;;;;;5.65;3.63;;;;;;;19.38;52.33;100608.09;4129869;28;20062;-71
2023/06/06 02:30:35;;;;;;;5.20;3.22;;;;;;;19.37;51.99;100611.63;4126543;28;20053;-69
2023/06/06 02:32:39;;;;;;;5.38;3.15;;;;;;;19.36;51.92;100610.75;4129717;28;20399;-72
2023/06/06 02:34:42;;;;;;;6.72;3.03;;;;;;;19.40;52.26;100606.28;4128377;28;20121;-72
2023/06/06 02:36:48;;;;;;;10.55;3.08;;;;;;;19.39;52.06;100609.84;4129625;28;20564;-72
2023/06/06 02:38:51;;;;;;;5.85;3.50;;;;;;;19.38;52.15;100608.09;4128097;28;20038;-72
2023/06/06 02:40:54;;;;;;;5.30;2.90;;;;;;;19.29;52.02;100602.97;4129663;28;20050;-73
2023/06/06 02:42:59;;;;;;;6.03;3.40;;;;;;;19.25;51.39;100607.47;4125778;28;20575;-72
2023/06/06 02:45:04;;;;;;;5.32;3.42;;;;;;;19.22;51.98;100611.94;4129761;28;20539;-70
2023/06/06 02:47:08;;;;;;;7.00;2.83;;;;;;;19.19;52.41;100605.81;4112737;28;20046;-70
2023/06/06 02:49:11;;;;;;;5.45;3.20;;;;;;;19.23;52.16;100611.00;4136556;28;20042;-71
2023/06/06 02:51:15;;;;;;;5.03;3.20;;;;;;;19.23;52.06;100616.28;4111170;28;20050;-71
2023/06/06 02:53:18;;;;;;;5.15;3.30;;;;;;;19.24;51.82;100615.41;4129243;28;20139;-69
2023/06/06 02:55:21;;;;;;;5.90;3.45;;;;;;;19.24;51.85;100621.53;4123853;28;20039;-69
2023/06/06 02:57:23;;;;;;;6.15;3.50;;;;;;;19.24;51.69;100623.31;4113179;28;20382;-73
2023/06/06 02:59:26;;;;;;;5.65;3.50;;;;;;;19.25;51.76;100623.28;4123879;28;20038;-72
2023/06/06 03:01:31;;;;;;;5.60;3.30;;;;;;;19.19;52.24;100621.63;4126337;28;20042;-72
2023/06/06 03:03:34;;;;;;;9.57;3.47;;;;;;;19.06;53.01;100628.00;4140147;28;20037;-72
2023/06/06 03:05:38;;;;;;;8.20;3.75;;;;;;;19.03;52.94;100628.06;4128933;28;20042;-72
2023/06/06 03:07:41;;;;;;;5.68;3.65;;;;;;;19.01;52.55;100632.47;4146193;28;20038;-73
2023/06/06 03:09:45;;;;;;;7.88;3.65;;;;;;;18.98;52.27;100640.44;4129071;28;20073;-73
2023/06/06 03:11:52;;;;;;;7.60;3.67;;;;;;;18.96;52.16;100636.97;4142970;28;20033;-70
2023/06/06 03:13:55;;;;;;;6.45;3.45;;;;;;;18.91;51.86;100633.53;4128028;28;20046;-72
2023/06/06 03:15:58;;;;;;;7.68;3.35;;;;;;;18.79;52.61;100635.50;4109866;28;20070;-72
2023/06/06 03:18:02;;;;;;;8.10;3.92;;;;;;;18.75;52.68;100635.53;4126698;28;20034;-72
2023/06/06 03:20:07;;;;;;;7.00;3.72;;;;;;;18.74;52.99;100633.81;4128075;28;20050;-72
2023/06/06 03:22:13;;;;;;;7.53;3.78;;;;;;;18.76;52.94;100640.81;4111385;28;20051;-72
2023/06/06 03:24:15;;;;;;;5.70;3.72;;;;;;;18.76;53.13;100632.91;4126828;28;20038;-71
2023/06/06 03:26:20;;;;;;;;;;;;;;;18.62;53.54;100638.38;4143650;28;20049;-69
2023/06/06 03:28:23;;;;;;;6.70;3.42;;;;;;;18.62;53.12;100642.78;4140572;28;19930;-72
2023/06/06 03:30:28;;;;;;;8.48;4.40;;;;;;;18.62;52.96;100640.16;4144665;28;20515;-72
2023/06/06 03:32:32;;;;;;;6.03;3.58;;;;;;;18.61;52.96;100638.41;4127415;28;20049;-72
2023/06/06 03:34:39;;;;;;;7.55;4.05;;;;;;;18.62;52.47;100648.91;4144173;28;20030;-71
2023/06/06 03:36:42;;;;;;;6.40;3.28;;;;;;;18.61;52.49;100647.19;4129268;28;20101;-71
2023/06/06 03:38:46;;;;;;;8.50;3.83;;;;;;;18.59;52.65;100650.75;4128629;28;20046;-71
2023/06/06 03:40:49;;;;;;;5.60;3.70;;;;;;;18.55;52.89;100649.91;4114203;28;20595;-71
2023/06/06 03:42:52;;;;;;;7.85;3.67;;;;;;;18.51;53.03;100650.84;4112512;28;20039;-71
2023/06/06 03:44:55;;;;;;;9.13;3.60;;;;;;;18.48;53.46;100654.38;4129034;28;20859;-72
2023/06/06 03:46:58;;;;;;;8.55;3.65;;;;;;;18.52;52.90;100646.47;4109762;28;20043;-71
2023/06/06 03:49:01;;;;;;;6.53;4.30;;;;;;;18.57;52.95;100649.88;4127834;28;20350;-69
2023/06/06 03:51:06;;;;;;;7.93;3.53;;;;;;;18.58;53.42;100647.22;4141382;28;20042;-72
2023/06/06 03:53:09;;;;;;;6.18;3.72;;;;;;;18.53;53.64;100650.81;4122281;28;20046;-72
2023/06/06 03:55:13;;;;;;;5.03;3.20;;;;;;;18.46;53.50;100650.94;4128632;28;20408;-72
2023/06/06 03:57:18;;;;;;;6.28;3.80;;;;;;;18.43;53.39;100650.97;4114476;28;20443;-72
2023/06/06 03:59:23;;;;;;;7.55;3.60;;;;;;;18.44;53.46;100649.19;4140015;28;20555;-72
2023/06/06 04:01:31;;;;;;;7.50;3.73;;;;;;;18.46;53.62;100647.44;4127828;28;20086;-72
2023/06/06 04:03:36;;;;;;;6.25;3.97;;;;;;;18.51;53.09;100645.59;4140748;28;20291;-72
2023/06/06 04:05:43;;;;;;;10.15;3.85;;;;;;;18.54;53.21;100650.78;4120197;28;20058;-72
2023/06/06 04:07:47;;;;;;;8.13;3.70;;;;;;;18.55;53.13;100652.53;4128451;28;20129;-72
2023/06/06 04:09:50;;;;;;;7.28;3.60;;;;;;;18.53;53.17;100648.19;4108466;28;20061;-72
2023/06/06 04:11:53;;;;;;;9.02;4.18;;;;;;;18.51;53.90;100657.88;4144786;28;20491;-71
2023/06/06 04:13:57;;;;;;;6.80;3.45;;;;;;;18.48;53.82;100659.66;4125154;28;20045;-71
2023/06/06 04:16:00;;;;;;;5.50;3.53;;;;;;;18.49;54.22;100658.78;4126521;28;20490;-71
2023/06/06 04:18:04;;;;;;;10.20;3.65;;;;;;;18.48;53.99;100656.16;4136915;28;20098;-72
2023/06/06 04:20:09;;;;;;;8.18;4.13;;;;;;;18.47;53.87;100652.69;4144509;28;20455;-72
2023/06/06 04:22:12;;;;;;;7.07;3.80;;;;;;;18.55;53.59;100656.94;4127647;28;20452;-71
2023/06/06 04:24:18;;;;;;;12.48;3.85;;;;;;;18.62;53.67;100659.44;4141623;28;20547;-72
2023/06/06 04:26:24;;;;;;;7.50;3.60;;;;;;;18.70;53.86;100658.47;4127912;28;20038;-72
2023/06/06 04:28:27;;;;;;;8.13;4.05;;;;;;;18.72;54.12;100667.19;4126208;28;20045;-70
2023/06/06 04:30:32;;;;;;;9.63;4.90;;;;;;;18.73;54.46;100663.69;4142506;28;20092;-72
2023/06/06 04:32:36;;;;;;;10.48;3.97;;;;;;;18.73;54.48;100667.16;4119656;28;20076;-70
2023/06/06 04:34:44;;;;;;;11.30;3.65;;;;;;;18.76;54.53;100664.50;4142325;28;20041;-70
2023/06/06 04:36:51;;;;;;;7.03;3.83;;;;;;;18.79;54.36;100666.19;4126693;28;20096;-72
2023/06/06 04:39:00;;;;;;;7.78;3.92;;;;;;;18.80;54.48;100671.44;4141632;28;20140;-72
2023/06/06 04:41:06;;;;;;;7.80;3.42;;;;;;;18.80;54.90;100665.31;4143607;28;20034;-73
2023/06/06 04:43:29;;;;;;;8.65;4.55;;;;;;;18.77;54.43;100668.88;4109257;28;20042;-72
2023/06/06 04:45:31;;;;;;;10.45;4.35;;;;;;;18.84;54.90;100670.50;4142922;28;20037;-72
2023/06/06 04:47:35;;;;;;;11.40;4.38;;;;;;;18.89;55.10;100672.22;4141757;28;20049;-70
2023/06/06 04:49:40;;;;;;;8.15;4.43;;;;;;;18.95;54.68;100666.84;4128216;28;20469;-72
2023/06/06 04:51:44;;;;;;;10.32;4.85;;;;;;;19.00;54.85;100675.56;4126430;28;20386;-72
2023/06/06 04:53:50;;;;;;;9.77;3.95;;;;;;;19.02;54.90;100677.25;4126846;28;20066;-72
2023/06/06 04:55:54;;;;;;;11.82;3.75;;;;;;;19.08;54.83;100663.09;4127588;28;20046;-72
2023/06/06 04:57:58;;;;;;;8.52;3.75;;;;;;;19.13;54.60;100671.81;4125915;28;20125;-69
2023/06/06 05:00:03;;;;;;;9.95;3.63;;;;;;;19.16;54.82;100670.88;4126315;28;20058;-72
2023/06/06 05:02:06;;;;;;;;;;;;;;;19.09;55.12;100670.13;4128292;28;20038;-72
2023/06/06 05:04:09;;;;;;;7.10;3.90;;;;;;;19.13;55.08;100671.81;4127324;28;19921;-72
2023/06/06 05:06:12;;;;;;;8.32;4.07;;;;;;;19.21;54.95;100673.44;4122558;28;20404;-72
2023/06/06 05:08:15;;;;;;;12.50;3.75;;;;;;;19.25;55.04;100667.22;4140995;28;20049;-72
2023/06/06 05:10:18;;;;;;;9.55;4.35;;;;;;;19.30;54.58;100671.50;4124995;28;20562;-71
2023/06/06 05:12:21;;;;;;;7.10;3.95;;;;;;;19.34;55.24;100670.53;4122610;28;20050;-73
2023/06/06 05:14:25;;;;;;;7.82;4.13;;;;;;;19.41;55.09;100668.66;4128586;28;20042;-73
2023/06/06 05:16:28;;;;;;;10.85;3.85;;;;;;;19.41;54.92;100663.38;4135676;28;20040;-73
2023/06/06 05:18:31;;;;;;;11.48;4.47;;;;;;;19.45;54.44;100672.97;4127325;28;20070;-70
2023/06/06 05:20:34;;;;;;;9.27;4.10;;;;;;;19.50;54.65;100664.97;4127863;28;21277;-70
2023/06/06 05:22:37;;;;;;;7.82;3.92;;;;;;;19.52;54.97;100665.81;4125296;28;20050;-70
2023/06/06 05:24:40;;;;;;;8.32;4.65;;;;;;;19.54;54.57;100667.53;4132117;28;20104;-71
2023/06/06 05:26:43;;;;;;;14.07;4.20;;;;;;;19.60;54.60;100665.69;4128471;28;20332;-71
2023/06/06 05:28:46;;;;;;;9.80;4.43;;;;;;;19.65;54.64;100664.66;4135381;28;20041;-73
2023/06/06 05:30:51;;;;;;;6.72;3.90;;;;;;;19.73;54.58;100661.88;4129083;28;20043;-71
2023/06/06 05:32:55;;;;;;;8.77;4.40;;;;;;;19.80;53.59;100668.81;4126076;28;20129;-71
2023/06/06 05:34:58;;;;;;;9.20;4.00;;;;;;;19.87;54.06;100675.69;4139742;28;20038;-71
2023/06/06 05:37:01;;;;;;;9.52;4.22;;;;;;;19.93;53.78;100672.06;4128875;28;20039;-73
2023/06/06 05:39:04;;;;;;;8.40;3.70;;;;;;;19.97;53.75;100665.78;4126573;28;20030;-71
2023/06/06 05:41:07;;;;;;;9.95;4.18;;;;;;;20.04;53.50;100671.81;4125127;28;20068;-71
2023/06/06 05:43:10;;;;;;;7.10;3.92;;;;;;;20.08;53.16;100668.22;4125162;28;20089;-71
2023/06/06 05:45:13;;;;;;;7.63;4.13;;;;;;;20.17;52.78;100668.00;4123761;28;20046;-70
2023/06/06 05:47:17;;;;;;;7.82;4.03;;;;;;;20.23;52.71;100670.50;4127252;28;20038;-73
2023/06/06 05:49:20;;;;;;;10.50;3.65;;;;;;;20.30;52.63;100678.31;4134476;28;20132;-69
2023/06/06 05:51:23;;;;;;;8.20;4.70;;;;;;;20.34;52.80;100680.84;4108225;28;20210;-70
2023/06/06 05:53:28;;;;;;;7.15;3.60;;;;;;;20.41;51.97;100676.25;4125182;28;20070;-70
2023/06/06 05:55:31;;;;;;;;;;;;;;;20.49;51.23;100673.47;4125868;28;20030;-65
2023/06/06 05:57:34;;;;;;;7.82;3.47;;;;;;;20.77;49.59;100672.84;4129847;28;20004;-65
2023/06/06 05:59:39;;;;;;;7.32;3.67;;;;;;;21.02;49.19;100675.72;4139432;28;20076;-65
2023/06/06 06:01:45;;;;;;;8.95;2.83;;;;;;;21.20;48.64;100672.59;4131278;28;20094;-68
2023/06/06 06:03:52;;;;;;;7.35;3.45;;;;;;;21.34;48.45;100674.00;4128210;28;20038;-65
2023/06/06 06:06:02;;;;;;;7.60;3.80;;;;;;;21.42;48.29;100677.28;4130240;28;20034;-65
2023/06/06 06:08:06;;;;;;;9.35;4.20;;;;;;;21.49;48.31;100670.06;4127407;28;20492;-66
2023/06/06 06:10:10;;;;;;;9.00;3.85;;;;;;;21.51;48.17;100676.22;4145699;28;20125;-66
2023/06/06 06:12:13;;;;;;;9.32;4.00;;;;;;;21.55;47.19;100678.75;4124366;28;20452;-66
2023/06/06 06:14:16;;;;;;;7.75;4.00;;;;;;;21.61;46.67;100678.56;4129739;28;20144;-66
2023/06/06 06:16:19;;;;;;;13.68;4.40;;;;;;;21.65;46.81;100684.63;4129363;28;20034;-66
2023/06/06 06:18:22;;;;;;;12.02;4.30;;;;;;;21.71;46.49;100679.19;4129953;28;20125;-64
2023/06/06 06:20:26;;;;;;;14.23;4.47;;;;;;;21.84;46.62;100689.41;4124667;28;20401;-65
2023/06/06 06:22:29;;;;;;;12.18;4.97;;;;;;;21.95;46.57;100688.19;4119391;28;20086;-64
2023/06/06 06:24:32;;;;;;;10.75;4.05;;;;;;;22.02;46.28;100687.97;4133321;28;20496;-65
2023/06/06 06:26:35;;;;;;;11.35;4.20;;;;;;;22.07;46.41;100691.38;4133937;28;20038;-64
2023/06/06 06:28:38;;;;;;;11.68;4.22;;;;;;;22.12;46.75;100694.75;4116639;28;20130;-65
2023/06/06 06:30:40;;;;;;;13.43;4.95;;;;;;;22.13;46.51;100696.47;4132647;28;20564;-64
2023/06/06 06:32:45;;;;;;;8.68;3.95;;;;;;;22.17;46.49;100692.84;4131973;28;20042;-65
2023/06/06 06:34:48;;;;;;;10.45;4.30;;;;;;;22.18;45.99;100691.03;4133653;28;20042;-65
2023/06/06 06:36:52;;;;;;;8.75;3.72;;;;;;;22.26;45.76;100691.69;4122848;28;20129;-64
2023/06/06 06:38:55;;;;;;;7.90;4.10;;;;;;;22.26;44.60;100696.97;4120533;28;20523;-64
2023/06/06 06:40:58;;;;;;;10.10;4.20;;;;;;;22.30;44.57;100693.34;4125393;28;20083;-65
2023/06/06 06:43:01;;;;;;;8.98;3.92;;;;;;;22.29;44.64;100692.44;4132267;28;20053;-65
2023/06/06 06:45:19;;;;;;;9.70;4.20;;;;;;;22.40;44.84;100697.47;4131371;28;20493;-65
2023/06/06 06:47:22;;;;;;;6.22;3.58;;;;;;;22.44;44.96;100692.91;4119585;28;20126;-66
2023/06/06 06:49:26;;;;;;;9.82;4.07;;;;;;;22.49;44.70;100693.66;4130461;28;20133;-65
2023/06/06 06:51:29;;;;;;;8.98;4.13;;;;;;;22.53;44.32;100700.59;4133087;28;20070;-67
2023/06/06 06:53:38;;;;;;;10.80;3.80;;;;;;;22.57;43.72;100694.25;4132266;28;20042;-67
2023/06/06 06:55:44;;;;;;;7.78;4.00;;;;;;;22.63;43.62;100704.69;4148563;28;20288;-67
2023/06/06 06:57:47;;;;;;;9.57;5.00;;;;;;;22.70;43.78;100696.53;4119327;28;20516;-67
2023/06/06 06:59:49;;;;;;;8.32;4.53;;;;;;;22.71;44.15;100703.56;4132542;28;20042;-66
2023/06/06 07:01:52;;;;;;;11.50;4.50;;;;;;;22.75;43.70;100697.22;4133330;28;20062;-69
2023/06/06 07:03:55;;;;;;;13.52;4.72;;;;;;;22.79;43.85;100706.81;4131519;28;20038;-66
2023/06/06 07:05:59;;;;;;;9.52;3.90;;;;;;;22.79;43.41;100706.81;4147647;28;20046;-65
2023/06/06 07:08:03;;;;;;;6.68;4.18;;;;;;;22.81;43.43;100695.25;4104870;28;20094;-71
2023/06/06 07:10:08;;;;;;;;;;;;;;;22.86;43.45;100697.75;4129863;28;20038;-71
2023/06/06 07:12:11;;;;;;;10.47;4.10;;;;;;;22.91;43.54;100701.13;4126649;28;20316;-72
2023/06/06 07:14:14;;;;;;;10.47;3.97;;;;;;;22.99;43.96;100704.38;4127676;28;20300;-72
2023/06/06 07:16:17;;;;;;;14.32;4.60;;;;;;;23.07;43.32;100711.22;4129780;28;20093;-72
2023/06/06 07:18:20;;;;;;;6.07;3.70;;;;;;;23.04;43.14;100706.88;4128679;28;20038;-65
2023/06/06 07:20:23;;;;;;;8.93;4.70;;;;;;;23.12;42.64;100701.34;4127044;28;20108;-66
2023/06/06 07:22:27;;;;;;;13.18;4.97;;;;;;;23.08;42.34;100702.34;4116118;28;20516;-63
2023/06/06 07:24:30;;;;;;;9.30;4.13;;;;;;;23.13;42.54;100698.66;4123083;28;20042;-63
2023/06/06 07:26:35;;;;;;;11.02;3.88;;;;;;;23.21;43.16;100698.38;4132790;28;20132;-63
2023/06/06 07:28:37;;;;;;;9.98;4.28;;;;;;;23.27;42.95;100698.16;4132743;28;20494;-70
2023/06/06 07:30:43;;;;;;;6.55;3.85;;;;;;;23.33;42.84;100703.28;4127880;28;20216;-70
2023/06/06 07:32:47;;;;;;;8.40;3.30;;;;;;;23.32;41.96;100700.69;4127616;28;20042;-70
2023/06/06 07:34:50;;;;;;;5.88;3.53;;;;;;;23.39;41.48;100698.66;4125557;28;20040;-70
2023/06/06 07:36:53;;;;;;;7.00;3.28;;;;;;;23.31;41.28;100702.44;4127532;28;20425;-67
2023/06/06 07:38:57;;;;;;;5.32;3.80;;;;;;;23.40;40.63;100700.41;4122715;28;20042;-73
2023/06/06 07:41:00;;;;;;;11.37;3.50;;;;;;;23.48;40.48;100707.16;4123916;28;20038;-74
2023/06/06 07:43:05;;;;;;;4.70;3.22;;;;;;;23.55;40.24;100704.28;4122826;28;20297;-74
2023/06/06 07:45:08;;;;;;;6.95;3.63;;;;;;;23.58;40.01;100698.88;4129483;28;20069;-74
2023/06/06 07:47:11;;;;;;;6.75;3.30;;;;;;;23.60;39.94;100694.38;4125803;28;20038;-73
2023/06/06 07:49:14;;;;;;;9.13;4.10;;;;;;;23.69;40.10;100684.28;4116149;28;20145;-74
2023/06/06 07:51:17;;;;;;;7.90;4.18;;;;;;;23.74;40.05;100693.84;4115402;28;20051;-73
2023/06/06 07:53:20;;;;;;;8.73;3.90;;;;;;;23.78;40.22;100685.72;4119832;28;20496;-73
2023/06/06 07:55:24;;;;;;;6.70;4.25;;;;;;;23.82;41.03;100687.34;4128573;28;20451;-73
2023/06/06 07:57:27;;;;;;;15.00;4.85;;;;;;;23.89;41.58;100690.69;4131513;28;20466;-73
2023/06/06 07:59:32;;;;;;;5.80;3.53;;;;;;;23.90;40.97;100686.22;4115310;28;20062;-73
2023/06/06 08:01:35;;;;;;;5.95;4.05;;;;;;;23.92;40.30;100690.56;4131496;28;20050;-73
2023/06/06 08:03:38;;;;;;;8.55;4.00;;;;;;;24.00;40.43;100685.81;4140110;23;20047;-75
2023/06/06 08:05:41;;;;;;;5.50;3.08;;;;;;;23.97;39.46;100691.22;4131147;28;20546;-75
2023/06/06 08:07:45;;;;;;;7.43;3.67;;;;;;;24.03;39.16;100688.38;4131316;28;20129;-75
2023/06/06 08:09:47;;;;;;;7.22;3.72;;;;;;;24.01;39.58;100684.88;4132530;28;20383;-75
2023/06/06 08:11:50;;;;;;;5.43;3.22;;;;;;;24.12;40.37;100689.78;4132163;28;20038;-75
2023/06/06 08:13:53;;;;;;;9.02;3.72;;;;;;;24.12;39.80;100694.22;4131879;28;20504;-75
2023/06/06 08:15:57;;;;;;;6.95;3.80;;;;;;;24.22;38.57;100685.88;4111829;28;20591;-75
2023/06/06 08:18:00;;;;;;;32.85;5.63;;;;;;;24.29;38.26;100691.78;4112483;28;20034;-74
2023/06/06 08:20:06;;;;;;;12.02;5.57;;;;;;;24.31;37.95;100689.94;4111371;28;20042;-74
2023/06/06 08:22:09;;;;;;;14.30;4.28;;;;;;;24.40;37.59;100688.72;4116680;28;20039;-73
2023/06/06 08:24:12;;;;;;;10.27;4.25;;;;;;;24.61;36.16;100683.50;4115451;28;20501;-73
2023/06/06 08:26:15;;;;;;;8.30;4.00;;;;;;;24.43;36.90;100685.06;4116158;28;20295;-74
2023/06/06 08:28:17;;;;;;;4.53;3.20;;;;;;;24.29;37.12;100683.81;4115760;28;20050;-74
2023/06/06 08:30:21;;;;;;;8.80;3.70;;;;;;;24.32;37.32;100682.84;4115767;28;20485;-74
2023/06/06 08:32:25;;;;;;;7.05;3.58;;;;;;;24.48;36.68;100680.44;4114033;28;20386;-73
2023/06/06 08:34:28;;;;;;;;;;;;;;;24.52;36.65;100679.38;4121238;28;20043;-74
2023/06/06 08:36:31;;;;;;;5.90;3.25;;;;;;;24.48;36.62;100691.06;4110522;28;19942;-75
2023/06/06 08:38:34;;;;;;;11.25;3.58;;;;;;;24.57;36.62;100686.25;4118893;28;20044;-75
2023/06/06 08:40:37;;;;;;;8.02;3.80;;;;;;;24.64;36.33;100683.38;4106167;28;20034;-75
2023/06/06 08:42:44;;;;;;;8.98;3.75;;;;;;;24.68;36.78;100682.31;4119513;28;20035;-75
2023/06/06 08:44:48;;;;;;;8.35;3.38;;;;;;;24.70;37.88;100683.13;4122911;28;20129;-75
2023/06/06 08:46:52;;;;;;;5.55;3.67;;;;;;;24.82;36.79;100676.41;4119693;28;20474;-75
2023/06/06 08:48:58;;;;;;;5.60;3.15;;;;;;;24.88;35.98;100679.69;4118251;28;20038;-75
2023/06/06 08:51:03;;;;;;;9.07;3.55;;;;;;;25.03;35.49;100680.84;4095455;28;20039;-75
2023/06/06 08:53:06;;;;;;;5.88;3.40;;;;;;;25.07;35.81;100682.44;4107431;28;20043;-74
2023/06/06 08:55:10;;;;;;;5.35;2.97;;;;;;;25.22;35.59;100672.94;4110835;28;20450;-75
2023/06/06 08:57:13;;;;;;;6.43;3.03;;;;;;;25.23;34.66;100679.09;4103007;28;20046;-74
2023/06/06 08:59:18;;;;;;;5.50;3.75;;;;;;;25.38;33.72;100680.28;4114267;28;20847;-74
2023/06/06 09:01:22;;;;;;;7.78;3.67;;;;;;;25.35;33.90;100681.28;4114714;28;20539;-72
2023/06/06 09:03:31;;;;;;;4.70;2.90;;;;;;;25.31;32.74;100681.47;4124301;28;20456;-74
2023/06/06 09:05:39;;;;;;;5.88;3.08;;;;;;;25.14;33.15;100679.50;4121416;28;20053;-74
2023/06/06 09:07:42;;;;;;;5.65;3.00;;;;;;;25.20;32.87;100673.91;4115515;28;20035;-74
2023/06/06 09:09:48;;;;;;;8.98;3.58;;;;;;;25.21;33.13;100678.31;4114518;28;20035;-76
2023/06/06 09:11:52;;;;;;;4.75;3.20;;;;;;;25.32;32.29;100678.75;4115023;28;20081;-77
2023/06/06 09:13:54;;;;;;;6.13;3.10;;;;;;;25.15;33.18;100682.09;4114485;28;20070;-77
2023/06/06 09:15:57;;;;;;;8.57;3.42;;;;;;;25.20;33.32;100676.56;4099484;28;20047;-76
2023/06/06 09:18:00;;;;;;;5.93;3.25;;;;;;;25.29;33.74;100670.88;4105403;28;20130;-76
2023/06/06 09:20:06;;;;;;;7.68;3.55;;;;;;;25.47;33.23;100682.53;4109342;28;20069;-76
2023/06/06 09:22:10;;;;;;;6.97;3.20;;;;;;;25.48;33.63;100670.94;4114910;28;20050;-77
2023/06/06 09:24:16;;;;;;;9.65;3.45;;;;;;;25.57;34.09;100675.00;4113595;28;20038;-77
2023/06/06 09:26:20;;;;;;;5.57;2.97;;;;;;;25.54;34.27;100677.78;4111465;28;20122;-77
2023/06/06 09:28:36;;;;;;;5.80;3.90;;;;;;;25.75;33.78;100676.81;4113614;28;20057;-77
2023/06/06 09:30:39;;;;;;;5.95;4.15;;;;;;;25.71;33.21;100672.53;4083854;29;20077;-77
2023/06/06 09:32:44;;;;;;;5.10;3.67;;;;;;;25.67;33.54;100665.66;4114053;28;20043;-77
2023/06/06 09:34:48;;;;;;;4.15;2.38;;;;;;;25.68;34.97;100678.00;4099385;28;20078;-77
2023/06/06 09:36:53;;;;;;;7.05;3.55;;;;;;;25.85;33.67;100669.25;4110523;28;20057;-76